sensor_id;sensor_type;location;lat;lon;timestamp;P1;durP1;ratioP1;P2;durP2;ratioP2
3747;SDS011;1889;50.058;8.688;2023-03-23T00:00:14;0.60;;;0.60;;
3747;SDS011;1889;50.058;8.688;2023-03-23T00:02:43;1.37;;;0.90;;
3747;SDS011;1889;50.058;8.688;2023-03-23T00:05:12;1.52;;;1.00;;
3747;SDS011;1889;50.058;8.688;2023-03-23T00:07:42;1.47;;;1.10;;
3747;SDS011;1889;50.058;8.688;2023-03-23T00:10:12;0.90;;;0.90;;
3747;SDS011;1889;50.058;8.688;2023-03-23T00:12:42;1.47;;;1.00;;
3747;SDS011;1889;50.058;8.688;2023-03-23T00:15:12;1.15;;;1.05;;
3747;SDS011;1889;50.058;8.688;2023-03-23T00:17:43;0.85;;;0.80;;
3747;SDS011;1889;50.058;8.688;2023-03-23T00:20:12;1.20;;;0.82;;
3747;SDS011;1889;50.058;8.688;2023-03-23T00:22:41;0.90;;;0.90;;
3747;SDS011;1889;50.058;8.688;2023-03-23T00:25:11;0.70;;;0.70;;
3747;SDS011;1889;50.058;8.688;2023-03-23T00:27:40;1.65;;;1.00;;
3747;SDS011;1889;50.058;8.688;2023-03-23T00:30:09;1.47;;;0.93;;
3747;SDS011;1889;50.058;8.688;2023-03-23T00:32:39;2.17;;;0.80;;
3747;SDS011;1889;50.058;8.688;2023-03-23T00:35:08;1.22;;;0.82;;
3747;SDS011;1889;50.058;8.688;2023-03-23T00:37:38;1.50;;;0.82;;
3747;SDS011;1889;50.058;8.688;2023-03-23T00:40:07;0.88;;;0.85;;
3747;SDS011;1889;50.058;8.688;2023-03-23T00:42:37;1.65;;;0.80;;
3747;SDS011;1889;50.058;8.688;2023-03-23T00:45:07;0.80;;;0.80;;
3747;SDS011;1889;50.058;8.688;2023-03-23T00:47:38;1.85;;;0.93;;
3747;SDS011;1889;50.058;8.688;2023-03-23T00:50:08;1.20;;;0.80;;
3747;SDS011;1889;50.058;8.688;2023-03-23T00:52:40;1.60;;;1.10;;
3747;SDS011;1889;50.058;8.688;2023-03-23T00:55:09;1.92;;;1.02;;
3747;SDS011;1889;50.058;8.688;2023-03-23T00:57:38;2.65;;;1.00;;
3747;SDS011;1889;50.058;8.688;2023-03-23T01:00:08;1.17;;;0.80;;
3747;SDS011;1889;50.058;8.688;2023-03-23T01:02:38;1.92;;;1.12;;
3747;SDS011;1889;50.058;8.688;2023-03-23T01:05:08;0.93;;;0.80;;
3747;SDS011;1889;50.058;8.688;2023-03-23T01:07:38;1.05;;;0.70;;
3747;SDS011;1889;50.058;8.688;2023-03-23T01:10:07;1.02;;;0.90;;
3747;SDS011;1889;50.058;8.688;2023-03-23T01:12:37;1.82;;;1.00;;
3747;SDS011;1889;50.058;8.688;2023-03-23T01:15:08;1.25;;;1.15;;
3747;SDS011;1889;50.058;8.688;2023-03-23T01:17:37;0.85;;;0.85;;
3747;SDS011;1889;50.058;8.688;2023-03-23T01:20:07;1.30;;;1.17;;
3747;SDS011;1889;50.058;8.688;2023-03-23T01:22:38;1.37;;;1.20;;
3747;SDS011;1889;50.058;8.688;2023-03-23T01:25:08;2.67;;;1.27;;
3747;SDS011;1889;50.058;8.688;2023-03-23T01:27:39;2.05;;;1.00;;
3747;SDS011;1889;50.058;8.688;2023-03-23T01:30:10;2.45;;;1.10;;
3747;SDS011;1889;50.058;8.688;2023-03-23T01:32:40;1.40;;;1.10;;
3747;SDS011;1889;50.058;8.688;2023-03-23T01:35:11;1.45;;;1.00;;
3747;SDS011;1889;50.058;8.688;2023-03-23T01:37:42;4.45;;;1.30;;
3747;SDS011;1889;50.058;8.688;2023-03-23T01:40:11;1.17;;;1.05;;
3747;SDS011;1889;50.058;8.688;2023-03-23T01:42:41;1.00;;;1.00;;
3747;SDS011;1889;50.058;8.688;2023-03-23T01:47:59;1.45;;;0.90;;
3747;SDS011;1889;50.058;8.688;2023-03-23T01:50:31;1.75;;;1.17;;
3747;SDS011;1889;50.058;8.688;2023-03-23T01:53:08;1.27;;;1.00;;
3747;SDS011;1889;50.058;8.688;2023-03-23T01:55:40;1.45;;;1.02;;
3747;SDS011;1889;50.058;8.688;2023-03-23T01:58:13;2.47;;;1.10;;
3747;SDS011;1889;50.058;8.688;2023-03-23T02:00:45;1.02;;;0.72;;
3747;SDS011;1889;50.058;8.688;2023-03-23T02:03:15;0.80;;;0.80;;
3747;SDS011;1889;50.058;8.688;2023-03-23T02:05:45;1.20;;;0.85;;
3747;SDS011;1889;50.058;8.688;2023-03-23T02:08:15;1.82;;;0.80;;
3747;SDS011;1889;50.058;8.688;2023-03-23T02:10:46;1.57;;;0.85;;
3747;SDS011;1889;50.058;8.688;2023-03-23T02:13:15;0.90;;;0.90;;
3747;SDS011;1889;50.058;8.688;2023-03-23T02:15:46;2.70;;;1.10;;
3747;SDS011;1889;50.058;8.688;2023-03-23T02:18:38;2.65;;;1.22;;
3747;SDS011;1889;50.058;8.688;2023-03-23T02:24:08;0.80;;;0.80;;
3747;SDS011;1889;50.058;8.688;2023-03-23T02:32:22;1.00;;;1.00;;
3747;SDS011;1889;50.058;8.688;2023-03-23T02:35:06;1.25;;;0.95;;
3747;SDS011;1889;50.058;8.688;2023-03-23T02:37:38;2.15;;;1.30;;
3747;SDS011;1889;50.058;8.688;2023-03-23T02:40:24;1.10;;;1.00;;
3747;SDS011;1889;50.058;8.688;2023-03-23T02:42:51;1.27;;;1.17;;
3747;SDS011;1889;50.058;8.688;2023-03-23T02:45:23;1.40;;;1.22;;
3747;SDS011;1889;50.058;8.688;2023-03-23T02:47:54;2.58;;;1.20;;
3747;SDS011;1889;50.058;8.688;2023-03-23T02:50:25;1.82;;;1.00;;
3747;SDS011;1889;50.058;8.688;2023-03-23T02:52:57;1.45;;;1.35;;
3747;SDS011;1889;50.058;8.688;2023-03-23T02:55:28;2.00;;;1.70;;
3747;SDS011;1889;50.058;8.688;2023-03-23T02:57:59;3.72;;;1.42;;
3747;SDS011;1889;50.058;8.688;2023-03-23T03:00:29;2.80;;;1.35;;
3747;SDS011;1889;50.058;8.688;2023-03-23T03:03:00;1.40;;;1.30;;
3747;SDS011;1889;50.058;8.688;2023-03-23T03:05:38;2.33;;;1.20;;
3747;SDS011;1889;50.058;8.688;2023-03-23T03:11:13;1.12;;;1.02;;
3747;SDS011;1889;50.058;8.688;2023-03-23T03:13:52;1.00;;;1.00;;
3747;SDS011;1889;50.058;8.688;2023-03-23T03:17:06;1.62;;;1.32;;
3747;SDS011;1889;50.058;8.688;2023-03-23T03:19:38;1.12;;;1.02;;
3747;SDS011;1889;50.058;8.688;2023-03-23T03:22:05;1.17;;;1.07;;
3747;SDS011;1889;50.058;8.688;2023-03-23T03:24:36;1.35;;;1.05;;
3747;SDS011;1889;50.058;8.688;2023-03-23T03:27:11;1.27;;;1.12;;
3747;SDS011;1889;50.058;8.688;2023-03-23T03:30:02;1.72;;;1.62;;
3747;SDS011;1889;50.058;8.688;2023-03-23T03:32:36;1.92;;;0.93;;
3747;SDS011;1889;50.058;8.688;2023-03-23T03:35:07;1.07;;;0.98;;
3747;SDS011;1889;50.058;8.688;2023-03-23T03:37:37;1.32;;;1.22;;
3747;SDS011;1889;50.058;8.688;2023-03-23T03:40:08;1.85;;;1.27;;
3747;SDS011;1889;50.058;8.688;2023-03-23T03:42:43;2.50;;;1.50;;
3747;SDS011;1889;50.058;8.688;2023-03-23T03:45:14;2.80;;;1.40;;
3747;SDS011;1889;50.058;8.688;2023-03-23T03:47:46;3.40;;;1.32;;
3747;SDS011;1889;50.058;8.688;2023-03-23T03:50:16;1.40;;;1.30;;
3747;SDS011;1889;50.058;8.688;2023-03-23T03:52:45;3.12;;;1.30;;
3747;SDS011;1889;50.058;8.688;2023-03-23T03:55:14;3.30;;;1.50;;
3747;SDS011;1889;50.058;8.688;2023-03-23T03:57:44;1.37;;;1.27;;
3747;SDS011;1889;50.058;8.688;2023-03-23T04:00:14;1.40;;;1.30;;
3747;SDS011;1889;50.058;8.688;2023-03-23T04:02:46;2.05;;;1.35;;
3747;SDS011;1889;50.058;8.688;2023-03-23T04:05:18;1.75;;;1.30;;
3747;SDS011;1889;50.058;8.688;2023-03-23T04:07:49;2.60;;;1.40;;
3747;SDS011;1889;50.058;8.688;2023-03-23T04:10:19;2.45;;;1.42;;
3747;SDS011;1889;50.058;8.688;2023-03-23T04:12:49;2.17;;;1.98;;
3747;SDS011;1889;50.058;8.688;2023-03-23T04:15:18;1.70;;;1.60;;
3747;SDS011;1889;50.058;8.688;2023-03-23T04:17:47;1.47;;;1.30;;
3747;SDS011;1889;50.058;8.688;2023-03-23T04:20:17;1.87;;;1.40;;
3747;SDS011;1889;50.058;8.688;2023-03-23T04:22:47;2.55;;;1.52;;
3747;SDS011;1889;50.058;8.688;2023-03-23T04:25:17;7.25;;;1.95;;
3747;SDS011;1889;50.058;8.688;2023-03-23T04:27:51;1.72;;;1.10;;
3747;SDS011;1889;50.058;8.688;2023-03-23T04:30:21;1.35;;;1.17;;
3747;SDS011;1889;50.058;8.688;2023-03-23T04:32:54;1.50;;;1.15;;
3747;SDS011;1889;50.058;8.688;2023-03-23T04:35:24;1.37;;;1.27;;
3747;SDS011;1889;50.058;8.688;2023-03-23T04:37:53;3.50;;;1.20;;
3747;SDS011;1889;50.058;8.688;2023-03-23T04:40:23;1.45;;;1.32;;
3747;SDS011;1889;50.058;8.688;2023-03-23T04:42:52;1.65;;;1.27;;
3747;SDS011;1889;50.058;8.688;2023-03-23T04:45:23;1.82;;;1.35;;
3747;SDS011;1889;50.058;8.688;2023-03-23T04:47:53;2.12;;;1.40;;
3747;SDS011;1889;50.058;8.688;2023-03-23T04:50:27;1.52;;;1.20;;
3747;SDS011;1889;50.058;8.688;2023-03-23T04:52:58;1.27;;;1.10;;
3747;SDS011;1889;50.058;8.688;2023-03-23T04:55:31;1.42;;;1.20;;
3747;SDS011;1889;50.058;8.688;2023-03-23T04:58:05;1.22;;;1.12;;
3747;SDS011;1889;50.058;8.688;2023-03-23T05:00:35;1.10;;;1.10;;
3747;SDS011;1889;50.058;8.688;2023-03-23T05:03:05;1.35;;;1.25;;
3747;SDS011;1889;50.058;8.688;2023-03-23T05:05:35;2.25;;;1.60;;
3747;SDS011;1889;50.058;8.688;2023-03-23T05:08:04;1.30;;;1.20;;
3747;SDS011;1889;50.058;8.688;2023-03-23T05:10:34;1.62;;;1.37;;
3747;SDS011;1889;50.058;8.688;2023-03-23T05:13:03;1.32;;;1.20;;
3747;SDS011;1889;50.058;8.688;2023-03-23T05:15:33;2.45;;;1.35;;
3747;SDS011;1889;50.058;8.688;2023-03-23T05:18:02;1.90;;;1.42;;
3747;SDS011;1889;50.058;8.688;2023-03-23T05:20:37;2.40;;;1.30;;
3747;SDS011;1889;50.058;8.688;2023-03-23T05:23:07;2.35;;;1.17;;
3747;SDS011;1889;50.058;8.688;2023-03-23T05:25:38;1.47;;;1.10;;
3747;SDS011;1889;50.058;8.688;2023-03-23T05:28:08;2.10;;;1.15;;
3747;SDS011;1889;50.058;8.688;2023-03-23T05:30:39;2.45;;;1.40;;
3747;SDS011;1889;50.058;8.688;2023-03-23T05:33:10;1.15;;;1.05;;
3747;SDS011;1889;50.058;8.688;2023-03-23T05:35:39;1.25;;;1.10;;
3747;SDS011;1889;50.058;8.688;2023-03-23T05:38:09;1.85;;;1.12;;
3747;SDS011;1889;50.058;8.688;2023-03-23T05:40:40;2.58;;;0.98;;
3747;SDS011;1889;50.058;8.688;2023-03-23T05:43:10;1.22;;;1.12;;
3747;SDS011;1889;50.058;8.688;2023-03-23T05:45:39;1.55;;;1.30;;
3747;SDS011;1889;50.058;8.688;2023-03-23T05:48:08;1.32;;;1.22;;
3747;SDS011;1889;50.058;8.688;2023-03-23T05:50:38;1.00;;;1.00;;
3747;SDS011;1889;50.058;8.688;2023-03-23T05:53:08;1.77;;;1.10;;
3747;SDS011;1889;50.058;8.688;2023-03-23T05:55:37;2.77;;;1.37;;
3747;SDS011;1889;50.058;8.688;2023-03-23T05:58:06;2.22;;;1.35;;
3747;SDS011;1889;50.058;8.688;2023-03-23T06:00:36;1.37;;;1.20;;
3747;SDS011;1889;50.058;8.688;2023-03-23T06:03:06;2.17;;;1.47;;
3747;SDS011;1889;50.058;8.688;2023-03-23T06:05:35;1.72;;;1.37;;
3747;SDS011;1889;50.058;8.688;2023-03-23T06:08:06;2.30;;;1.60;;
3747;SDS011;1889;50.058;8.688;2023-03-23T06:10:36;1.22;;;1.12;;
3747;SDS011;1889;50.058;8.688;2023-03-23T06:13:05;2.17;;;1.65;;
3747;SDS011;1889;50.058;8.688;2023-03-23T06:15:35;1.62;;;1.45;;
3747;SDS011;1889;50.058;8.688;2023-03-23T06:18:04;1.40;;;1.30;;
3747;SDS011;1889;50.058;8.688;2023-03-23T06:20:33;1.62;;;1.30;;
3747;SDS011;1889;50.058;8.688;2023-03-23T06:23:04;1.47;;;1.22;;
3747;SDS011;1889;50.058;8.688;2023-03-23T06:25:33;1.47;;;1.37;;
3747;SDS011;1889;50.058;8.688;2023-03-23T06:28:03;1.22;;;1.12;;
3747;SDS011;1889;50.058;8.688;2023-03-23T06:30:33;2.02;;;1.70;;
3747;SDS011;1889;50.058;8.688;2023-03-23T06:33:02;1.40;;;1.20;;
3747;SDS011;1889;50.058;8.688;2023-03-23T06:35:32;1.20;;;1.10;;
3747;SDS011;1889;50.058;8.688;2023-03-23T06:38:02;1.57;;;1.47;;
3747;SDS011;1889;50.058;8.688;2023-03-23T06:40:31;1.67;;;1.35;;
3747;SDS011;1889;50.058;8.688;2023-03-23T06:43:01;2.08;;;1.20;;
3747;SDS011;1889;50.058;8.688;2023-03-23T06:45:32;1.80;;;1.50;;
3747;SDS011;1889;50.058;8.688;2023-03-23T06:48:02;3.33;;;1.40;;
3747;SDS011;1889;50.058;8.688;2023-03-23T06:50:31;1.32;;;1.17;;
3747;SDS011;1889;50.058;8.688;2023-03-23T06:53:00;1.32;;;1.22;;
3747;SDS011;1889;50.058;8.688;2023-03-23T06:55:30;2.10;;;1.60;;
3747;SDS011;1889;50.058;8.688;2023-03-23T06:57:59;2.30;;;1.37;;
3747;SDS011;1889;50.058;8.688;2023-03-23T07:00:29;1.35;;;1.12;;
3747;SDS011;1889;50.058;8.688;2023-03-23T07:02:58;2.22;;;1.40;;
3747;SDS011;1889;50.058;8.688;2023-03-23T07:05:28;2.87;;;1.30;;
3747;SDS011;1889;50.058;8.688;2023-03-23T07:07:57;1.77;;;1.30;;
3747;SDS011;1889;50.058;8.688;2023-03-23T07:10:27;2.35;;;1.27;;
3747;SDS011;1889;50.058;8.688;2023-03-23T07:12:56;2.25;;;1.55;;
3747;SDS011;1889;50.058;8.688;2023-03-23T07:15:26;2.65;;;1.50;;
3747;SDS011;1889;50.058;8.688;2023-03-23T07:17:56;2.65;;;1.20;;
3747;SDS011;1889;50.058;8.688;2023-03-23T07:20:25;2.95;;;1.30;;
3747;SDS011;1889;50.058;8.688;2023-03-23T07:22:54;2.33;;;1.47;;
3747;SDS011;1889;50.058;8.688;2023-03-23T07:25:24;1.32;;;1.20;;
3747;SDS011;1889;50.058;8.688;2023-03-23T07:27:53;3.22;;;1.35;;
3747;SDS011;1889;50.058;8.688;2023-03-23T07:30:23;2.47;;;1.22;;
3747;SDS011;1889;50.058;8.688;2023-03-23T07:32:53;1.47;;;1.37;;
3747;SDS011;1889;50.058;8.688;2023-03-23T07:35:23;1.40;;;1.27;;
3747;SDS011;1889;50.058;8.688;2023-03-23T07:37:53;2.30;;;1.12;;
3747;SDS011;1889;50.058;8.688;2023-03-23T07:40:23;1.75;;;1.50;;
3747;SDS011;1889;50.058;8.688;2023-03-23T07:42:53;1.75;;;1.25;;
3747;SDS011;1889;50.058;8.688;2023-03-23T07:45:24;1.47;;;1.20;;
3747;SDS011;1889;50.058;8.688;2023-03-23T07:47:54;1.50;;;1.40;;
3747;SDS011;1889;50.058;8.688;2023-03-23T07:50:23;2.10;;;1.45;;
3747;SDS011;1889;50.058;8.688;2023-03-23T07:52:53;1.45;;;1.32;;
3747;SDS011;1889;50.058;8.688;2023-03-23T07:55:25;2.60;;;1.27;;
3747;SDS011;1889;50.058;8.688;2023-03-23T07:57:54;1.47;;;1.37;;
3747;SDS011;1889;50.058;8.688;2023-03-23T08:00:24;1.35;;;1.20;;
3747;SDS011;1889;50.058;8.688;2023-03-23T08:02:54;1.20;;;1.10;;
3747;SDS011;1889;50.058;8.688;2023-03-23T08:05:26;2.45;;;1.42;;
3747;SDS011;1889;50.058;8.688;2023-03-23T08:07:56;1.82;;;1.40;;
3747;SDS011;1889;50.058;8.688;2023-03-23T08:10:26;2.83;;;1.40;;
3747;SDS011;1889;50.058;8.688;2023-03-23T08:12:55;1.95;;;1.15;;
3747;SDS011;1889;50.058;8.688;2023-03-23T08:15:26;1.57;;;1.35;;
3747;SDS011;1889;50.058;8.688;2023-03-23T08:17:56;1.12;;;1.02;;
3747;SDS011;1889;50.058;8.688;2023-03-23T08:20:28;1.47;;;1.27;;
3747;SDS011;1889;50.058;8.688;2023-03-23T08:22:57;1.40;;;1.30;;
3747;SDS011;1889;50.058;8.688;2023-03-23T08:25:28;2.17;;;1.50;;
3747;SDS011;1889;50.058;8.688;2023-03-23T08:28:01;1.77;;;1.30;;
3747;SDS011;1889;50.058;8.688;2023-03-23T08:30:31;1.57;;;1.35;;
3747;SDS011;1889;50.058;8.688;2023-03-23T08:33:01;1.60;;;1.30;;
3747;SDS011;1889;50.058;8.688;2023-03-23T08:35:32;1.60;;;1.50;;
3747;SDS011;1889;50.058;8.688;2023-03-23T08:38:02;4.90;;;1.50;;
3747;SDS011;1889;50.058;8.688;2023-03-23T08:40:31;1.82;;;1.40;;
3747;SDS011;1889;50.058;8.688;2023-03-23T08:43:00;4.05;;;1.20;;
3747;SDS011;1889;50.058;8.688;2023-03-23T08:45:30;1.50;;;1.40;;
3747;SDS011;1889;50.058;8.688;2023-03-23T08:47:59;2.83;;;1.40;;
3747;SDS011;1889;50.058;8.688;2023-03-23T08:50:29;2.75;;;1.60;;
3747;SDS011;1889;50.058;8.688;2023-03-23T08:52:58;2.10;;;1.50;;
3747;SDS011;1889;50.058;8.688;2023-03-23T08:55:28;2.65;;;1.42;;
3747;SDS011;1889;50.058;8.688;2023-03-23T08:57:58;1.45;;;1.35;;
3747;SDS011;1889;50.058;8.688;2023-03-23T09:00:28;3.02;;;1.27;;
3747;SDS011;1889;50.058;8.688;2023-03-23T09:02:57;2.22;;;1.92;;
3747;SDS011;1889;50.058;8.688;2023-03-23T09:05:27;2.37;;;1.40;;
3747;SDS011;1889;50.058;8.688;2023-03-23T09:07:58;3.00;;;1.57;;
3747;SDS011;1889;50.058;8.688;2023-03-23T09:10:28;1.50;;;1.17;;
3747;SDS011;1889;50.058;8.688;2023-03-23T09:12:57;2.45;;;1.62;;
3747;SDS011;1889;50.058;8.688;2023-03-23T09:15:27;1.10;;;1.10;;
3747;SDS011;1889;50.058;8.688;2023-03-23T09:17:56;1.82;;;1.17;;
3747;SDS011;1889;50.058;8.688;2023-03-23T09:20:27;1.25;;;1.15;;
3747;SDS011;1889;50.058;8.688;2023-03-23T09:22:56;2.15;;;1.25;;
3747;SDS011;1889;50.058;8.688;2023-03-23T09:25:26;1.40;;;1.07;;
3747;SDS011;1889;50.058;8.688;2023-03-23T09:27:57;2.15;;;1.40;;
3747;SDS011;1889;50.058;8.688;2023-03-23T09:30:27;1.50;;;1.32;;
3747;SDS011;1889;50.058;8.688;2023-03-23T09:32:59;1.52;;;1.42;;
3747;SDS011;1889;50.058;8.688;2023-03-23T09:35:29;4.92;;;1.30;;
3747;SDS011;1889;50.058;8.688;2023-03-23T09:38:01;1.52;;;1.32;;
3747;SDS011;1889;50.058;8.688;2023-03-23T09:40:53;1.30;;;1.20;;
3747;SDS011;1889;50.058;8.688;2023-03-23T09:43:29;2.02;;;1.30;;
3747;SDS011;1889;50.058;8.688;2023-03-23T09:46:32;1.60;;;1.22;;
3747;SDS011;1889;50.058;8.688;2023-03-23T09:49:08;1.02;;;0.90;;
3747;SDS011;1889;50.058;8.688;2023-03-23T09:54:42;1.65;;;1.30;;
3747;SDS011;1889;50.058;8.688;2023-03-23T09:57:20;2.27;;;1.02;;
3747;SDS011;1889;50.058;8.688;2023-03-23T10:00:03;1.75;;;1.45;;
3747;SDS011;1889;50.058;8.688;2023-03-23T10:02:43;1.22;;;1.10;;
3747;SDS011;1889;50.058;8.688;2023-03-23T10:05:18;1.62;;;1.25;;
3747;SDS011;1889;50.058;8.688;2023-03-23T10:07:54;1.07;;;0.98;;
3747;SDS011;1889;50.058;8.688;2023-03-23T10:10:26;1.37;;;1.27;;
3747;SDS011;1889;50.058;8.688;2023-03-23T10:13:03;1.67;;;1.52;;
3747;SDS011;1889;50.058;8.688;2023-03-23T10:15:40;1.10;;;1.00;;
3747;SDS011;1889;50.058;8.688;2023-03-23T10:18:15;1.35;;;0.90;;
3747;SDS011;1889;50.058;8.688;2023-03-23T10:21:03;1.27;;;1.05;;
3747;SDS011;1889;50.058;8.688;2023-03-23T10:26:32;0.85;;;0.85;;
3747;SDS011;1889;50.058;8.688;2023-03-23T10:31:57;1.75;;;1.42;;
3747;SDS011;1889;50.058;8.688;2023-03-23T10:34:32;2.22;;;1.60;;
3747;SDS011;1889;50.058;8.688;2023-03-23T10:37:26;1.47;;;1.37;;
3747;SDS011;1889;50.058;8.688;2023-03-23T10:39:58;1.55;;;1.40;;
3747;SDS011;1889;50.058;8.688;2023-03-23T10:42:33;1.00;;;1.00;;
3747;SDS011;1889;50.058;8.688;2023-03-23T10:45:13;1.70;;;1.27;;
3747;SDS011;1889;50.058;8.688;2023-03-23T10:47:52;1.62;;;1.30;;
3747;SDS011;1889;50.058;8.688;2023-03-23T10:50:25;1.42;;;1.32;;
3747;SDS011;1889;50.058;8.688;2023-03-23T10:52:56;1.60;;;1.30;;
3747;SDS011;1889;50.058;8.688;2023-03-23T10:55:37;1.30;;;1.20;;
3747;SDS011;1889;50.058;8.688;2023-03-23T10:58:12;1.10;;;1.00;;
3747;SDS011;1889;50.058;8.688;2023-03-23T11:00:59;1.57;;;1.07;;
3747;SDS011;1889;50.058;8.688;2023-03-23T11:03:39;1.40;;;1.25;;
3747;SDS011;1889;50.058;8.688;2023-03-23T11:06:19;1.37;;;1.25;;
3747;SDS011;1889;50.058;8.688;2023-03-23T11:09:00;1.65;;;1.17;;
3747;SDS011;1889;50.058;8.688;2023-03-23T11:11:28;1.42;;;0.95;;
3747;SDS011;1889;50.058;8.688;2023-03-23T11:14:18;2.12;;;1.02;;
3747;SDS011;1889;50.058;8.688;2023-03-23T11:16:51;0.80;;;0.80;;
3747;SDS011;1889;50.058;8.688;2023-03-23T11:19:23;1.22;;;1.10;;
3747;SDS011;1889;50.058;8.688;2023-03-23T11:24:41;1.25;;;1.15;;
3747;SDS011;1889;50.058;8.688;2023-03-23T11:27:12;3.80;;;1.20;;
3747;SDS011;1889;50.058;8.688;2023-03-23T11:29:48;1.50;;;1.35;;
3747;SDS011;1889;50.058;8.688;2023-03-23T11:32:26;1.40;;;1.05;;
3747;SDS011;1889;50.058;8.688;2023-03-23T11:34:58;1.02;;;0.93;;
3747;SDS011;1889;50.058;8.688;2023-03-23T11:37:35;1.60;;;0.90;;
3747;SDS011;1889;50.058;8.688;2023-03-23T11:42:44;1.77;;;1.00;;
3747;SDS011;1889;50.058;8.688;2023-03-23T11:50:45;1.12;;;1.02;;
3747;SDS011;1889;50.058;8.688;2023-03-23T11:53:32;1.10;;;1.00;;
3747;SDS011;1889;50.058;8.688;2023-03-23T11:56:42;0.85;;;0.85;;
3747;SDS011;1889;50.058;8.688;2023-03-23T11:58:54;0.80;;;0.80;;
3747;SDS011;1889;50.058;8.688;2023-03-23T12:04:27;0.80;;;0.80;;
3747;SDS011;1889;50.058;8.688;2023-03-23T12:07:27;1.40;;;1.00;;
3747;SDS011;1889;50.058;8.688;2023-03-23T12:18:16;1.22;;;1.17;;
3747;SDS011;1889;50.058;8.688;2023-03-23T12:21:09;1.37;;;0.85;;
3747;SDS011;1889;50.058;8.688;2023-03-23T12:23:45;2.65;;;1.12;;
3747;SDS011;1889;50.058;8.688;2023-03-23T12:29:19;0.78;;;0.78;;
3747;SDS011;1889;50.058;8.688;2023-03-23T12:32:01;0.75;;;0.72;;
3747;SDS011;1889;50.058;8.688;2023-03-23T12:34:54;1.25;;;0.70;;
3747;SDS011;1889;50.058;8.688;2023-03-23T12:37:43;2.22;;;0.90;;
3747;SDS011;1889;50.058;8.688;2023-03-23T12:40:47;1.22;;;0.60;;
3747;SDS011;1889;50.058;8.688;2023-03-23T12:46:12;1.07;;;0.80;;
3747;SDS011;1889;50.058;8.688;2023-03-23T12:53:58;0.78;;;0.72;;
3747;SDS011;1889;50.058;8.688;2023-03-23T12:56:37;1.05;;;0.68;;
3747;SDS011;1889;50.058;8.688;2023-03-23T12:59:19;1.42;;;0.70;;
3747;SDS011;1889;50.058;8.688;2023-03-23T13:01:57;1.10;;;1.00;;
3747;SDS011;1889;50.058;8.688;2023-03-23T13:04:35;0.68;;;0.62;;
3747;SDS011;1889;50.058;8.688;2023-03-23T13:07:01;1.00;;;0.80;;
3747;SDS011;1889;50.058;8.688;2023-03-23T13:09:45;1.90;;;0.80;;
3747;SDS011;1889;50.058;8.688;2023-03-23T13:12:05;0.78;;;0.70;;
3747;SDS011;1889;50.058;8.688;2023-03-23T13:14:41;0.72;;;0.72;;
3747;SDS011;1889;50.058;8.688;2023-03-23T13:17:28;1.15;;;1.05;;
3747;SDS011;1889;50.058;8.688;2023-03-23T13:23:09;2.15;;;0.88;;
3747;SDS011;1889;50.058;8.688;2023-03-23T13:28:51;1.07;;;0.98;;
3747;SDS011;1889;50.058;8.688;2023-03-23T13:31:30;1.57;;;0.90;;
3747;SDS011;1889;50.058;8.688;2023-03-23T13:34:23;0.50;;;0.50;;
3747;SDS011;1889;50.058;8.688;2023-03-23T13:39:47;0.75;;;0.68;;
3747;SDS011;1889;50.058;8.688;2023-03-23T13:42:32;0.50;;;0.50;;
3747;SDS011;1889;50.058;8.688;2023-03-23T13:45:08;1.55;;;0.60;;
3747;SDS011;1889;50.058;8.688;2023-03-23T13:47:48;1.10;;;0.90;;
3747;SDS011;1889;50.058;8.688;2023-03-23T13:52:58;1.30;;;0.80;;
3747;SDS011;1889;50.058;8.688;2023-03-23T14:00:36;0.50;;;0.50;;
3747;SDS011;1889;50.058;8.688;2023-03-23T14:05:48;0.72;;;0.70;;
3747;SDS011;1889;50.058;8.688;2023-03-23T14:11:01;0.70;;;0.70;;
3747;SDS011;1889;50.058;8.688;2023-03-23T14:13:43;0.50;;;0.50;;
3747;SDS011;1889;50.058;8.688;2023-03-23T14:16:21;1.27;;;0.60;;
3747;SDS011;1889;50.058;8.688;2023-03-23T14:18:55;0.80;;;0.68;;
3747;SDS011;1889;50.058;8.688;2023-03-23T14:21:37;1.55;;;0.70;;
3747;SDS011;1889;50.058;8.688;2023-03-23T14:24:10;0.75;;;0.70;;
3747;SDS011;1889;50.058;8.688;2023-03-23T14:26:34;0.60;;;0.60;;
3747;SDS011;1889;50.058;8.688;2023-03-23T14:29:04;0.70;;;0.70;;
3747;SDS011;1889;50.058;8.688;2023-03-23T14:31:34;0.50;;;0.50;;
3747;SDS011;1889;50.058;8.688;2023-03-23T14:34:10;1.02;;;0.70;;
3747;SDS011;1889;50.058;8.688;2023-03-23T14:36:43;1.65;;;0.60;;
3747;SDS011;1889;50.058;8.688;2023-03-23T14:41:54;0.70;;;0.70;;
3747;SDS011;1889;50.058;8.688;2023-03-23T14:44:34;0.88;;;0.72;;
3747;SDS011;1889;50.058;8.688;2023-03-23T14:47:02;1.25;;;0.90;;
3747;SDS011;1889;50.058;8.688;2023-03-23T14:49:40;1.37;;;0.98;;
3747;SDS011;1889;50.058;8.688;2023-03-23T14:52:15;1.05;;;0.72;;
3747;SDS011;1889;50.058;8.688;2023-03-23T14:54:46;1.15;;;0.70;;
3747;SDS011;1889;50.058;8.688;2023-03-23T14:57:15;0.68;;;0.62;;
3747;SDS011;1889;50.058;8.688;2023-03-23T14:59:47;1.57;;;0.65;;
3747;SDS011;1889;50.058;8.688;2023-03-23T15:02:20;0.98;;;0.85;;
3747;SDS011;1889;50.058;8.688;2023-03-23T15:05:08;0.60;;;0.60;;
3747;SDS011;1889;50.058;8.688;2023-03-23T15:07:34;1.07;;;0.88;;
3747;SDS011;1889;50.058;8.688;2023-03-23T15:10:07;0.80;;;0.80;;
3747;SDS011;1889;50.058;8.688;2023-03-23T15:12:39;0.50;;;0.50;;
3747;SDS011;1889;50.058;8.688;2023-03-23T15:15:26;2.50;;;0.80;;
3747;SDS011;1889;50.058;8.688;2023-03-23T15:17:57;1.67;;;0.70;;
3747;SDS011;1889;50.058;8.688;2023-03-23T15:20:29;1.30;;;0.80;;
3747;SDS011;1889;50.058;8.688;2023-03-23T15:23:06;0.70;;;0.70;;
3747;SDS011;1889;50.058;8.688;2023-03-23T15:25:36;0.93;;;0.90;;
3747;SDS011;1889;50.058;8.688;2023-03-23T15:28:14;0.72;;;0.72;;
3747;SDS011;1889;50.058;8.688;2023-03-23T15:30:46;0.85;;;0.80;;
3747;SDS011;1889;50.058;8.688;2023-03-23T15:33:18;0.90;;;0.90;;
3747;SDS011;1889;50.058;8.688;2023-03-23T15:35:50;1.05;;;0.88;;
3747;SDS011;1889;50.058;8.688;2023-03-23T15:38:24;1.27;;;1.12;;
3747;SDS011;1889;50.058;8.688;2023-03-23T15:40:57;1.92;;;0.90;;
3747;SDS011;1889;50.058;8.688;2023-03-23T15:43:30;0.65;;;0.65;;
3747;SDS011;1889;50.058;8.688;2023-03-23T15:46:04;0.78;;;0.78;;
3747;SDS011;1889;50.058;8.688;2023-03-23T15:51:29;2.65;;;0.90;;
3747;SDS011;1889;50.058;8.688;2023-03-23T15:54:00;0.70;;;0.70;;
3747;SDS011;1889;50.058;8.688;2023-03-23T15:56:30;2.55;;;1.00;;
3747;SDS011;1889;50.058;8.688;2023-03-23T15:58:59;0.95;;;0.88;;
3747;SDS011;1889;50.058;8.688;2023-03-23T16:01:29;1.37;;;1.10;;
3747;SDS011;1889;50.058;8.688;2023-03-23T16:04:06;2.70;;;0.93;;
3747;SDS011;1889;50.058;8.688;2023-03-23T16:06:37;0.78;;;0.78;;
3747;SDS011;1889;50.058;8.688;2023-03-23T16:09:06;0.90;;;0.90;;
3747;SDS011;1889;50.058;8.688;2023-03-23T16:11:38;2.22;;;0.93;;
3747;SDS011;1889;50.058;8.688;2023-03-23T16:14:07;0.70;;;0.70;;
3747;SDS011;1889;50.058;8.688;2023-03-23T16:16:42;1.10;;;1.00;;
3747;SDS011;1889;50.058;8.688;2023-03-23T16:19:27;1.15;;;0.80;;
3747;SDS011;1889;50.058;8.688;2023-03-23T16:21:56;1.30;;;1.20;;
3747;SDS011;1889;50.058;8.688;2023-03-23T16:24:25;1.17;;;1.07;;
3747;SDS011;1889;50.058;8.688;2023-03-23T16:26:55;0.82;;;0.80;;
3747;SDS011;1889;50.058;8.688;2023-03-23T16:29:24;1.65;;;0.90;;
3747;SDS011;1889;50.058;8.688;2023-03-23T16:31:54;1.10;;;1.00;;
3747;SDS011;1889;50.058;8.688;2023-03-23T16:34:23;1.50;;;1.20;;
3747;SDS011;1889;50.058;8.688;2023-03-23T16:36:54;1.12;;;0.93;;
3747;SDS011;1889;50.058;8.688;2023-03-23T16:39:23;1.75;;;1.22;;
3747;SDS011;1889;50.058;8.688;2023-03-23T16:41:53;1.20;;;1.10;;
3747;SDS011;1889;50.058;8.688;2023-03-23T16:44:22;1.30;;;1.20;;
3747;SDS011;1889;50.058;8.688;2023-03-23T16:46:51;1.17;;;1.07;;
3747;SDS011;1889;50.058;8.688;2023-03-23T16:49:21;2.50;;;1.15;;
3747;SDS011;1889;50.058;8.688;2023-03-23T16:51:50;2.10;;;1.05;;
3747;SDS011;1889;50.058;8.688;2023-03-23T16:54:20;3.08;;;1.30;;
3747;SDS011;1889;50.058;8.688;2023-03-23T16:56:49;2.27;;;1.65;;
3747;SDS011;1889;50.058;8.688;2023-03-23T16:59:18;2.17;;;1.42;;
3747;SDS011;1889;50.058;8.688;2023-03-23T17:01:48;0.93;;;0.90;;
3747;SDS011;1889;50.058;8.688;2023-03-23T17:04:18;0.88;;;0.80;;
3747;SDS011;1889;50.058;8.688;2023-03-23T17:06:47;1.10;;;1.00;;
3747;SDS011;1889;50.058;8.688;2023-03-23T17:09:18;1.65;;;1.05;;
3747;SDS011;1889;50.058;8.688;2023-03-23T17:11:47;0.93;;;0.90;;